Airfield :
LOGIN :

Register | Disclaimer

   EN    FR    IT 

 










Legend :    VFR   Marginal VFR   IFR   Intensive IFR   Very Intensive IFR
Visi :
Ceiling :
>= 8 km
>= 3000ft
5 to 8 km
1000 to 3000 ft
1500m to 5 km
500 to 1000 ft
800 to 1500m
200 to 500 ft
< 800m
< 200 ft
Symbols :   Thunderstorms  Fog  Heavy snow  Heavy precipitations  Wind > 20 kt
SIGMETs :     Misc.  Thunderstorms  Icing  Turbulence  Mountain Waves  Volcanic Ashes






- Airport Elevation : 359 ft
- IATA code : BVA


LFOB - Beauvais

CURRENT METAR :
  • 050030Z AUTO 28003KT CAVOK 13/12 Q1012 TEMPO 0500 FG VV///

EXPIRED METARs :
  • 050000Z AUTO 31003KT CAVOK 13/11 Q1012 BECMG 2000 BR
  • 042330Z AUTO 36002KT 9999 FEW041 BKN052 15/12 Q1012 BECMG 2000 BR
  • 042300Z AUTO 29002KT 9999 SCT037 BKN052 BKN096 15/12 Q1012 BECMG 2000 BR
  • 042230Z AUTO 29003KT 9999 BKN037 BKN049 OVC094 16/13 Q1012 BECMG 2000 BR
  • 042200Z AUTO 33003KT 9999 SCT037 SCT048 OVC098 16/13 Q1012 NOSIG

TAF TAF LFOB
Valid from the 05 at 00:00 until the 06 at 00:00 UTC


042300Z 0500/0524 VRB03KT CAVOK
BECMG 0501/0505 2000 BR
PROB40 0502/0506 0500 FG VV///
BECMG 0506/0508 9999 NSW
BECMG 0510/0512 19012KT
TEMPO 0516/0524 3000 RA BKN012 BKN030TCU
ATIS : +33 3 44 11 49 28



MET'MAP, your aeronautical weather chart ! - Copyright ORBIFLY December 2007 - Disclaimer

ORBIFLY MET'MAP TEAM :

Programming & Development : Alexandra Zaïnal
Concept & original design : Baudouin d'Aumeries
Assistance for programming : Marc-Olivier Méhu
Technical & hardware support : Manuel Goepfert

Contact : metmap@orbifly.com




SOURCES & CREDITS :

   NOAA